createdAt,value
2023-05-11T00:01:54.739Z,5.10
2023-05-11T00:04:22.734Z,5.20
2023-05-11T00:06:50.976Z,5.17
2023-05-11T00:09:18.963Z,5.60
2023-05-11T00:11:46.996Z,5.47
2023-05-11T00:14:16.457Z,5.53
2023-05-11T00:16:44.491Z,5.57
2023-05-11T00:19:12.538Z,5.27
2023-05-11T00:21:40.822Z,5.60
2023-05-11T00:24:09.922Z,5.87
2023-05-11T00:26:38.056Z,5.53
2023-05-11T00:29:06.226Z,5.80
2023-05-11T00:31:36.016Z,5.90
2023-05-11T00:34:04.244Z,5.80
2023-05-11T00:36:33.302Z,5.67
2023-05-11T00:39:01.461Z,5.60
2023-05-11T00:41:29.483Z,5.40
2023-05-11T00:43:57.947Z,6.03
2023-05-11T00:46:26.303Z,6.13
2023-05-11T00:48:55.976Z,5.87
2023-05-11T00:51:24.035Z,6.07
2023-05-11T00:53:52.250Z,5.60
2023-05-11T00:56:21.621Z,5.77
2023-05-11T00:58:50.356Z,5.97
2023-05-11T01:01:19.015Z,5.40
2023-05-11T01:03:48.416Z,5.60
2023-05-11T01:06:26.713Z,6.23
2023-05-11T01:09:04.457Z,5.93
2023-05-11T01:11:42.265Z,5.80
2023-05-11T01:14:16.185Z,6.50
2023-05-11T01:16:51.552Z,5.83
2023-05-11T01:19:30.230Z,5.67
2023-05-11T01:22:01.256Z,5.57
2023-05-11T01:24:41.020Z,5.80
2023-05-11T01:27:33.127Z,6.10
2023-05-11T01:30:29.115Z,6.07
2023-05-11T01:33:00.952Z,5.90
2023-05-11T01:35:32.460Z,5.70
2023-05-11T01:38:02.444Z,6.37
2023-05-11T01:40:33.664Z,6.23
2023-05-11T01:43:05.305Z,5.80
2023-05-11T01:45:40.398Z,5.90
2023-05-11T01:48:15.119Z,5.70
2023-05-11T01:50:43.448Z,5.97
2023-05-11T01:53:13.482Z,5.87
2023-05-11T01:55:43.300Z,5.93
2023-05-11T01:58:16.596Z,5.73
2023-05-11T02:00:47.420Z,6.30
2023-05-11T02:03:17.633Z,5.63
2023-05-11T02:05:48.507Z,6.63
2023-05-11T02:08:18.132Z,6.50
2023-05-11T02:10:47.838Z,6.00
2023-05-11T02:13:18.998Z,7.17
2023-05-11T02:15:54.174Z,6.63
2023-05-11T02:18:23.039Z,6.63
2023-05-11T02:21:00.252Z,6.40
2023-05-11T02:23:29.291Z,6.80
2023-05-11T02:25:58.824Z,6.40
2023-05-11T02:28:27.264Z,6.27
2023-05-11T02:31:01.615Z,6.30
2023-05-11T02:33:35.605Z,6.60
2023-05-11T02:36:04.577Z,6.73
2023-05-11T02:38:36.541Z,7.10
2023-05-11T02:41:10.916Z,6.47
2023-05-11T02:43:44.771Z,6.73
2023-05-11T02:46:18.218Z,6.87
2023-05-11T02:48:50.618Z,6.40
2023-05-11T02:51:23.438Z,7.07
2023-05-11T02:53:56.067Z,7.03
2023-05-11T02:56:25.868Z,6.87
2023-05-11T02:58:55.956Z,6.70
2023-05-11T03:01:30.619Z,6.80
2023-05-11T03:03:59.630Z,6.37
2023-05-11T03:06:30.418Z,6.60
2023-05-11T03:08:58.771Z,7.50
2023-05-11T03:11:28.515Z,7.07
2023-05-11T03:13:57.202Z,7.20
2023-05-11T03:16:26.831Z,7.37
2023-05-11T03:18:56.749Z,7.17
2023-05-11T03:21:26.693Z,7.30
2023-05-11T03:23:55.939Z,7.23
2023-05-11T03:26:28.541Z,6.93
2023-05-11T03:28:58.387Z,6.73
2023-05-11T03:31:26.561Z,6.57
2023-05-11T03:33:56.193Z,7.00
2023-05-11T03:36:26.729Z,7.13
2023-05-11T03:38:57.698Z,7.30
2023-05-11T03:41:32.225Z,7.03
2023-05-11T03:44:03.023Z,6.70
2023-05-11T03:46:32.631Z,7.30
2023-05-11T03:49:05.936Z,7.03
2023-05-11T03:51:35.634Z,8.63
2023-05-11T03:54:03.979Z,7.67
2023-05-11T03:56:32.265Z,7.83
2023-05-11T03:59:00.678Z,7.43
2023-05-11T04:01:29.765Z,7.73
2023-05-11T04:03:58.029Z,7.10
2023-05-11T04:06:27.581Z,7.50
2023-05-11T04:09:04.293Z,7.67
2023-05-11T04:11:32.342Z,7.93
2023-05-11T04:14:00.407Z,8.17
2023-05-11T04:16:28.584Z,7.83
2023-05-11T04:18:56.866Z,8.10
2023-05-11T04:21:24.925Z,8.13
2023-05-11T04:23:54.404Z,7.40
2023-05-11T04:26:22.626Z,7.60
2023-05-11T04:28:50.649Z,7.77
2023-05-11T04:31:18.666Z,7.63
2023-05-11T04:33:47.190Z,8.33
2023-05-11T04:36:15.567Z,7.90
2023-05-11T04:38:43.813Z,7.80
2023-05-11T04:41:14.997Z,7.43
2023-05-11T04:43:43.628Z,8.00
2023-05-11T04:46:12.121Z,7.60
2023-05-11T04:48:40.533Z,7.70
2023-05-11T04:51:08.560Z,7.47
2023-05-11T04:53:42.414Z,7.40
2023-05-11T04:56:12.009Z,7.20
2023-05-11T04:58:41.416Z,7.20
2023-05-11T05:01:10.313Z,7.00
2023-05-11T05:03:38.785Z,7.00
2023-05-11T05:06:07.188Z,6.83
2023-05-11T05:08:35.269Z,7.17
2023-05-11T05:11:03.523Z,6.97
2023-05-11T05:13:31.753Z,6.90
2023-05-11T05:16:01.348Z,7.70
2023-05-11T05:18:29.721Z,7.57
2023-05-11T05:20:57.908Z,8.20
2023-05-11T05:23:26.563Z,7.07
2023-05-11T05:25:54.909Z,7.73
2023-05-11T05:28:23.977Z,7.70
2023-05-11T05:30:52.390Z,7.50
2023-05-11T05:33:22.301Z,7.50
2023-05-11T05:35:50.795Z,7.43
2023-05-11T05:38:20.415Z,8.37
2023-05-11T05:40:49.122Z,8.10
2023-05-11T05:43:17.560Z,7.63
2023-05-11T05:45:46.166Z,7.23
2023-05-11T05:48:14.271Z,7.33
2023-05-11T05:50:43.885Z,7.53
2023-05-11T05:53:12.063Z,7.43
2023-05-11T05:55:40.539Z,7.60
2023-05-11T05:58:08.832Z,7.33
2023-05-11T06:00:38.277Z,7.33
2023-05-11T06:03:10.136Z,7.13
2023-05-11T06:05:38.440Z,6.57
2023-05-11T06:08:11.132Z,7.70
2023-05-11T06:10:40.658Z,7.53
2023-05-11T06:13:10.813Z,7.03
2023-05-11T06:15:43.333Z,7.53
2023-05-11T06:18:23.777Z,7.87
2023-05-11T06:20:52.466Z,8.00
2023-05-11T06:23:22.141Z,7.10
2023-05-11T06:25:50.179Z,7.33
2023-05-11T06:28:18.485Z,6.83
2023-05-11T06:30:47.271Z,7.60
2023-05-11T06:33:15.327Z,7.70
2023-05-11T06:35:43.462Z,7.83
2023-05-11T06:38:13.990Z,6.93
2023-05-11T06:40:44.790Z,7.73
2023-05-11T06:43:13.056Z,7.40
2023-05-11T06:45:49.303Z,6.67
2023-05-11T06:48:18.110Z,7.23
2023-05-11T06:50:46.491Z,7.77
2023-05-11T06:53:17.145Z,7.87
2023-05-11T06:55:46.754Z,7.73
2023-05-11T06:58:15.008Z,6.97
2023-05-11T07:00:45.824Z,7.17
2023-05-11T07:03:13.983Z,7.63
2023-05-11T07:05:42.121Z,7.57
2023-05-11T07:08:10.209Z,7.90
2023-05-11T07:10:38.347Z,7.40
2023-05-11T07:13:07.688Z,7.00
2023-05-11T07:15:36.202Z,7.33
2023-05-11T07:18:04.848Z,7.60
2023-05-11T07:20:32.875Z,7.07
2023-05-11T07:23:00.999Z,7.33
2023-05-11T07:25:29.118Z,8.00
2023-05-11T07:27:57.397Z,8.90
2023-05-11T07:30:26.880Z,7.40
2023-05-11T07:32:55.025Z,7.60
2023-05-11T07:35:24.128Z,7.37
2023-05-11T07:37:52.508Z,8.18
2023-05-11T07:40:20.862Z,7.28
2023-05-11T07:42:49.109Z,7.20
2023-05-11T07:45:17.158Z,6.37
2023-05-11T07:47:46.549Z,7.00
2023-05-11T07:50:14.605Z,6.50
2023-05-11T07:52:42.749Z,6.90
2023-05-11T07:55:11.097Z,7.15
2023-05-11T07:57:39.186Z,6.28
2023-05-11T08:00:10.857Z,6.60
2023-05-11T08:02:42.170Z,6.50
2023-05-11T08:05:14.253Z,6.88
2023-05-11T08:07:42.569Z,6.60
2023-05-11T08:10:11.464Z,6.03
2023-05-11T08:12:39.885Z,5.60
2023-05-11T08:15:08.891Z,5.65
2023-05-11T08:17:37.573Z,5.75
2023-05-11T08:20:06.862Z,6.18
2023-05-11T08:22:36.437Z,5.47
2023-05-11T08:25:05.683Z,6.00
2023-05-11T08:27:33.742Z,5.68
2023-05-11T08:30:01.758Z,6.40
2023-05-11T08:32:30.452Z,5.60
2023-05-11T08:34:59.032Z,5.53
2023-05-11T08:37:27.134Z,5.80
2023-05-11T08:39:56.585Z,5.93
2023-05-11T08:42:26.118Z,5.63
2023-05-11T08:44:57.483Z,6.15
2023-05-11T08:47:25.518Z,5.50
2023-05-11T08:49:54.184Z,5.00
2023-05-11T08:52:22.227Z,5.85
2023-05-11T08:54:50.422Z,5.18
2023-05-11T08:57:21.141Z,5.95
2023-05-11T08:59:50.388Z,5.70
2023-05-11T09:02:19.742Z,5.13
2023-05-11T09:04:49.277Z,4.60
2023-05-11T09:07:18.805Z,7.70
2023-05-11T09:09:48.036Z,4.85
2023-05-11T09:12:17.156Z,4.07
2023-05-11T09:14:47.680Z,5.45
2023-05-11T09:17:15.768Z,4.90
2023-05-11T09:20:00.654Z,5.57
2023-05-11T09:22:31.471Z,5.53
2023-05-11T09:25:01.813Z,5.40
2023-05-11T09:27:29.863Z,5.60
2023-05-11T09:30:11.663Z,5.03
2023-05-11T09:32:48.541Z,5.30
2023-05-11T09:35:24.108Z,4.70
2023-05-11T09:38:04.792Z,4.63
2023-05-11T09:40:34.918Z,4.95
2023-05-11T09:43:04.075Z,4.95
2023-05-11T09:45:40.937Z,4.63
2023-05-11T09:48:24.764Z,5.45
2023-05-11T09:50:59.545Z,4.22
2023-05-11T09:53:36.085Z,4.60
2023-05-11T09:56:04.856Z,4.53
2023-05-11T09:58:47.790Z,4.40
2023-05-11T10:01:18.462Z,4.18
2023-05-11T10:03:52.215Z,4.70
2023-05-11T10:06:21.174Z,4.43
2023-05-11T10:08:50.156Z,5.00
2023-05-11T10:11:18.335Z,4.55
2023-05-11T10:13:46.834Z,4.07
2023-05-11T10:16:17.719Z,4.68
2023-05-11T10:18:46.988Z,4.30
2023-05-11T10:21:16.740Z,4.18
2023-05-11T10:23:44.897Z,3.80
2023-05-11T10:26:14.551Z,4.32
2023-05-11T10:28:42.827Z,4.18
2023-05-11T10:31:11.806Z,3.58
2023-05-11T10:33:42.583Z,3.60
2023-05-11T10:36:12.306Z,3.30
2023-05-11T10:38:40.602Z,4.72
2023-05-11T10:41:26.757Z,4.18
2023-05-11T10:44:36.019Z,3.65
2023-05-11T10:47:23.857Z,3.60
2023-05-11T10:50:24.270Z,3.67
2023-05-11T10:53:09.255Z,3.20
2023-05-11T10:55:53.830Z,3.25
2023-05-11T10:58:36.607Z,3.10
2023-05-11T11:01:32.243Z,3.13
2023-05-11T11:04:02.962Z,3.90
2023-05-11T11:06:32.149Z,3.10
2023-05-11T11:09:02.912Z,3.53
2023-05-11T11:11:33.478Z,4.20
2023-05-11T11:14:03.779Z,3.47
2023-05-11T11:16:31.994Z,4.43
2023-05-11T11:19:38.041Z,3.70
2023-05-11T11:22:07.047Z,3.92
2023-05-11T11:24:47.264Z,3.47
2023-05-11T11:27:15.947Z,3.17
2023-05-11T11:30:19.608Z,2.80
2023-05-11T11:32:48.320Z,2.88
2023-05-11T11:35:47.348Z,3.00
2023-05-11T11:38:17.402Z,3.20
2023-05-11T11:40:51.943Z,3.20
2023-05-11T11:43:22.643Z,3.30
2023-05-11T11:45:55.024Z,2.80
2023-05-11T11:48:25.073Z,3.08
2023-05-11T11:51:04.146Z,3.10
2023-05-11T11:54:08.950Z,3.55
2023-05-11T11:56:46.044Z,4.00
2023-05-11T11:59:16.149Z,2.90
2023-05-11T12:01:48.624Z,2.80
2023-05-11T12:04:52.098Z,3.30
2023-05-11T12:07:21.717Z,3.42
2023-05-11T12:09:50.480Z,3.50
2023-05-11T12:12:21.061Z,3.95
2023-05-11T12:14:52.314Z,3.95
2023-05-11T12:17:28.384Z,3.88
2023-05-11T12:20:11.769Z,3.42
2023-05-11T12:22:39.934Z,3.05
2023-05-11T12:25:09.015Z,3.30
2023-05-11T12:27:48.033Z,3.60
2023-05-11T12:30:26.796Z,3.47
2023-05-11T12:32:57.194Z,3.40
2023-05-11T12:35:27.047Z,3.70
2023-05-11T12:37:55.975Z,4.13
2023-05-11T12:40:24.497Z,3.33
2023-05-11T12:42:54.607Z,3.40
2023-05-11T12:45:23.596Z,3.72
2023-05-11T12:47:53.051Z,3.35
2023-05-11T12:50:22.086Z,3.83
2023-05-11T12:52:50.463Z,3.88
2023-05-11T12:55:28.792Z,3.60
2023-05-11T12:58:10.061Z,3.67
2023-05-11T13:00:38.655Z,3.40
2023-05-11T13:03:07.891Z,3.78
2023-05-11T13:05:36.158Z,3.28
2023-05-11T13:08:05.921Z,3.40
2023-05-11T13:10:33.976Z,3.13
2023-05-11T13:13:02.076Z,3.55
2023-05-11T13:15:31.790Z,3.78
2023-05-11T13:18:03.438Z,3.90
2023-05-11T13:20:33.072Z,3.85
2023-05-11T13:23:06.297Z,3.50
2023-05-11T13:25:35.154Z,3.70
2023-05-11T13:28:03.495Z,3.13
2023-05-11T13:30:34.721Z,3.80
2023-05-11T13:33:03.339Z,3.90
2023-05-11T13:35:31.485Z,3.60
2023-05-11T13:37:59.835Z,3.60
2023-05-11T13:40:27.921Z,3.70
2023-05-11T13:42:56.839Z,3.75
2023-05-11T13:45:25.018Z,3.83
2023-05-11T13:47:55.374Z,3.30
2023-05-11T13:50:23.728Z,4.07
2023-05-11T13:52:52.008Z,3.90
2023-05-11T13:55:21.109Z,3.50
2023-05-11T13:57:49.609Z,3.25
2023-05-11T14:00:19.568Z,3.10
2023-05-11T14:02:49.909Z,3.30
2023-05-11T14:05:19.761Z,2.95
2023-05-11T14:07:49.194Z,3.20
2023-05-11T14:10:18.122Z,3.35
2023-05-11T14:12:47.056Z,4.00
2023-05-11T14:15:15.324Z,3.60
2023-05-11T14:17:45.839Z,3.67
2023-05-11T14:20:15.687Z,3.35
2023-05-11T14:22:45.188Z,3.50
2023-05-11T14:25:13.353Z,3.30
2023-05-11T14:27:41.494Z,3.03
2023-05-11T14:30:10.801Z,3.38
2023-05-11T14:32:39.004Z,3.25
2023-05-11T14:35:07.444Z,3.53
2023-05-11T14:37:35.991Z,3.45
2023-05-11T14:40:06.476Z,3.20
2023-05-11T14:42:34.626Z,3.10
2023-05-11T14:45:02.668Z,3.38
2023-05-11T14:47:30.828Z,3.20
2023-05-11T14:49:58.992Z,3.55
2023-05-11T14:52:27.052Z,3.38
2023-05-11T14:54:55.143Z,3.33
2023-05-11T14:57:25.176Z,3.85
2023-05-11T14:59:59.740Z,3.50
2023-05-11T15:02:29.985Z,3.55
2023-05-11T15:04:58.530Z,3.30
2023-05-11T15:07:26.971Z,3.58
2023-05-11T15:09:56.097Z,3.25
2023-05-11T15:12:25.574Z,3.10
2023-05-11T15:14:53.682Z,4.10
2023-05-11T15:17:21.795Z,2.92
2023-05-11T15:19:49.913Z,3.00
2023-05-11T15:22:19.319Z,3.40
2023-05-11T15:24:48.078Z,3.95
2023-05-11T15:27:16.453Z,3.28
2023-05-11T15:29:46.023Z,5.20
2023-05-11T15:32:17.268Z,5.00
2023-05-11T15:34:58.463Z,3.90
2023-05-11T15:37:28.351Z,3.85
2023-05-11T15:39:56.480Z,3.42
2023-05-11T15:42:24.578Z,3.45
2023-05-11T15:44:54.123Z,3.85
2023-05-11T15:47:22.354Z,3.88
2023-05-11T15:49:50.407Z,3.90
2023-05-11T15:52:19.156Z,3.40
2023-05-11T15:54:47.252Z,3.30
2023-05-11T15:57:15.258Z,3.10
2023-05-11T15:59:43.330Z,3.50
2023-05-11T16:02:12.957Z,3.13
2023-05-11T16:04:41.418Z,3.53
2023-05-11T16:07:09.492Z,3.40
2023-05-11T16:09:37.577Z,3.38
2023-05-11T16:12:06.145Z,4.05
2023-05-11T16:14:34.276Z,3.70
2023-05-11T16:17:03.006Z,3.92
2023-05-11T16:19:35.222Z,3.30
2023-05-11T16:22:03.352Z,3.60
2023-05-11T16:24:34.329Z,3.50
2023-05-11T16:27:03.007Z,3.40
2023-05-11T16:29:32.161Z,3.30
2023-05-11T16:32:00.646Z,3.30
2023-05-11T16:34:28.924Z,3.08
2023-05-11T16:36:59.363Z,3.75
2023-05-11T16:39:27.669Z,3.30
2023-05-11T16:41:55.838Z,3.50
2023-05-11T16:44:24.707Z,4.40
2023-05-11T16:46:53.544Z,4.53
2023-05-11T16:49:21.720Z,4.10
2023-05-11T16:51:49.839Z,4.30
2023-05-11T16:54:19.313Z,3.97
2023-05-11T16:56:47.544Z,4.00
2023-05-11T16:59:15.630Z,4.07
2023-05-11T17:01:45.362Z,4.32
2023-05-11T17:04:14.296Z,4.70
2023-05-11T17:06:42.508Z,4.50
2023-05-11T17:09:10.628Z,4.35
2023-05-11T17:11:40.060Z,5.00
2023-05-11T17:14:08.174Z,4.20
2023-05-11T17:16:36.365Z,3.80
2023-05-11T17:19:04.581Z,3.90
2023-05-11T17:21:32.691Z,3.65
2023-05-11T17:24:00.825Z,4.13
2023-05-11T17:26:39.619Z,3.97
2023-05-11T17:29:16.628Z,3.70
2023-05-11T17:31:46.716Z,4.10
2023-05-11T17:34:15.026Z,4.43
2023-05-11T17:36:43.144Z,4.60
2023-05-11T17:39:11.307Z,4.90
2023-05-11T17:41:39.651Z,4.30
2023-05-11T17:44:08.308Z,5.45
2023-05-11T17:46:38.356Z,3.85
2023-05-11T17:49:06.912Z,3.88
2023-05-11T17:51:35.018Z,4.55
2023-05-11T17:54:03.057Z,5.00
2023-05-11T17:56:31.499Z,4.45
2023-05-11T17:58:59.635Z,4.50
2023-05-11T18:01:28.502Z,4.00
2023-05-11T18:03:59.128Z,4.30
2023-05-11T18:06:28.370Z,4.82
2023-05-11T18:08:56.642Z,5.25
2023-05-11T18:11:24.771Z,5.10
2023-05-11T18:13:52.906Z,5.07
2023-05-11T18:16:21.018Z,4.78
2023-05-11T18:18:49.169Z,4.53
2023-05-11T18:21:19.134Z,5.18
2023-05-11T18:23:47.263Z,4.68
2023-05-11T18:26:16.238Z,4.35
2023-05-11T18:28:44.253Z,4.35
2023-05-11T18:31:12.450Z,4.00
2023-05-11T18:33:40.648Z,4.00
2023-05-11T18:36:08.969Z,4.60
2023-05-11T18:38:38.570Z,4.63
2023-05-11T18:41:07.310Z,4.65
2023-05-11T18:43:35.516Z,4.57
2023-05-11T18:46:08.569Z,4.07
2023-05-11T18:48:36.923Z,4.50
2023-05-11T18:51:05.163Z,4.55
2023-05-11T18:53:33.749Z,4.53
2023-05-11T18:56:03.240Z,4.53
2023-05-11T18:58:31.814Z,4.78
2023-05-11T19:00:59.869Z,4.63
2023-05-11T19:03:28.738Z,4.55
2023-05-11T19:05:57.017Z,4.65
2023-05-11T19:08:25.175Z,4.72
2023-05-11T19:10:53.211Z,5.88
2023-05-11T19:13:23.178Z,5.03
2023-05-11T19:15:51.259Z,5.63
2023-05-11T19:18:19.453Z,5.93
2023-05-11T19:20:47.674Z,5.15
2023-05-11T19:23:15.945Z,5.90
2023-05-11T19:25:44.113Z,6.35
2023-05-11T19:28:12.436Z,5.70
2023-05-11T19:30:41.883Z,7.38
2023-05-11T19:33:10.039Z,6.70
2023-05-11T19:35:38.238Z,7.55
2023-05-11T19:38:07.330Z,7.57
2023-05-11T19:43:07.928Z,7.20
2023-05-11T19:45:37.614Z,7.18
2023-05-11T19:48:07.329Z,7.75
2023-05-11T19:50:35.529Z,8.27
2023-05-11T19:53:03.544Z,7.55
2023-05-11T19:55:31.572Z,6.93
2023-05-11T19:58:00.049Z,6.90
2023-05-11T20:00:28.119Z,6.55
2023-05-11T20:02:57.266Z,6.55
2023-05-11T20:05:26.881Z,6.22
2023-05-11T20:07:54.889Z,6.03
2023-05-11T20:10:22.995Z,5.47
2023-05-11T20:12:51.414Z,5.50
2023-05-11T20:15:19.853Z,5.40
2023-05-11T20:17:48.059Z,5.27
2023-05-11T20:20:16.179Z,5.35
2023-05-11T20:22:45.814Z,5.47
2023-05-11T20:25:18.333Z,4.93
2023-05-11T20:27:46.652Z,4.60
2023-05-11T20:30:15.243Z,4.97
2023-05-11T20:34:06.904Z,4.77
2023-05-11T20:35:32.914Z,5.07
2023-05-11T20:38:02.477Z,5.50
2023-05-11T20:40:30.745Z,5.40
2023-05-11T20:42:58.797Z,5.50
2023-05-11T20:45:28.171Z,6.30
2023-05-11T20:47:56.274Z,4.70
2023-05-11T20:50:24.719Z,5.17
2023-05-11T20:52:52.901Z,5.83
2023-05-11T20:55:22.693Z,5.67
2023-05-11T20:57:50.786Z,4.80
2023-05-11T21:00:19.059Z,5.23
2023-05-11T21:02:47.408Z,5.07
2023-05-11T21:05:15.704Z,5.47
2023-05-11T21:07:43.761Z,5.20
2023-05-11T21:10:13.003Z,5.17
2023-05-11T21:12:42.568Z,5.27
2023-05-11T21:15:11.512Z,5.80
2023-05-11T21:17:39.577Z,5.90
2023-05-11T21:20:08.981Z,6.07
2023-05-11T21:22:38.353Z,5.30
2023-05-11T21:25:07.297Z,5.67
2023-05-11T21:27:35.303Z,5.27
2023-05-11T21:30:05.366Z,5.57
2023-05-11T21:32:33.589Z,6.03
2023-05-11T21:35:01.582Z,6.00
2023-05-11T21:37:33.453Z,6.23
2023-05-11T21:40:01.939Z,6.13
2023-05-11T21:42:34.517Z,5.77
2023-05-11T21:45:04.838Z,5.13
2023-05-11T21:47:32.956Z,5.17
2023-05-11T21:50:01.032Z,6.17
2023-05-11T21:52:29.124Z,6.50
2023-05-11T21:54:57.157Z,6.00
2023-05-11T21:57:25.336Z,6.40
2023-05-11T21:59:53.460Z,6.70
2023-05-11T22:02:22.840Z,6.23
2023-05-11T22:04:50.789Z,6.30
2023-05-11T22:07:20.004Z,6.13
2023-05-11T22:09:48.160Z,5.90
2023-05-11T22:12:16.138Z,5.70
2023-05-11T22:14:44.164Z,5.83
2023-05-11T22:17:12.267Z,6.03
2023-05-11T22:19:41.679Z,5.90
2023-05-11T22:22:09.823Z,5.43
2023-05-11T22:24:37.927Z,6.50
2023-05-11T22:27:08.623Z,6.30
2023-05-11T22:29:36.653Z,6.03
2023-05-11T22:32:04.864Z,6.33
2023-05-11T22:34:33.052Z,5.97
2023-05-11T22:37:03.518Z,5.70
2023-05-11T22:39:31.542Z,5.93
2023-05-11T22:41:59.608Z,5.90
2023-05-11T22:44:27.906Z,6.03
2023-05-11T22:46:59.172Z,5.90
2023-05-11T22:49:27.211Z,5.57
2023-05-11T22:51:58.618Z,5.47
2023-05-11T22:54:28.271Z,5.60
2023-05-11T22:56:57.388Z,5.83
2023-05-11T22:59:25.489Z,6.40
2023-05-11T23:01:55.321Z,5.90
2023-05-11T23:04:23.312Z,5.87
2023-05-11T23:06:51.370Z,5.70
2023-05-11T23:09:19.779Z,6.00
2023-05-11T23:11:49.360Z,5.23
2023-05-11T23:14:17.579Z,5.50
2023-05-11T23:16:45.603Z,6.20
2023-05-11T23:19:13.599Z,5.80
2023-05-11T23:21:41.707Z,6.07
2023-05-11T23:24:09.808Z,5.87
2023-05-11T23:26:38.873Z,5.63
2023-05-11T23:29:08.626Z,5.97
2023-05-11T23:31:36.864Z,6.10
2023-05-11T23:34:05.078Z,5.23
2023-05-11T23:36:33.704Z,6.43
2023-05-11T23:39:01.719Z,6.23
2023-05-11T23:41:29.709Z,6.33
2023-05-11T23:43:57.864Z,6.50
2023-05-11T23:46:27.382Z,5.57
2023-05-11T23:48:55.920Z,5.97
2023-05-11T23:51:23.933Z,6.30
2023-05-11T23:53:51.925Z,7.80
2023-05-11T23:56:19.898Z,5.77
2023-05-11T23:58:48.271Z,6.17
